sensor_id;sensor_type;location;lat;lon;timestamp;P1;durP1;ratioP1;P2;durP2;ratioP2
76039;SDS011;64736;50.462;4.850;2023-03-01T00:01:00;13.65;;;8.73;;
76039;SDS011;64736;50.462;4.850;2023-03-01T00:03:28;14.07;;;8.88;;
76039;SDS011;64736;50.462;4.850;2023-03-01T00:05:53;12.07;;;8.50;;
76039;SDS011;64736;50.462;4.850;2023-03-01T00:08:19;12.75;;;9.48;;
76039;SDS011;64736;50.462;4.850;2023-03-01T00:10:44;12.85;;;8.70;;
76039;SDS011;64736;50.462;4.850;2023-03-01T00:13:10;14.88;;;9.27;;
76039;SDS011;64736;50.462;4.850;2023-03-01T00:15:39;12.68;;;9.02;;
76039;SDS011;64736;50.462;4.850;2023-03-01T00:18:07;16.08;;;9.10;;
76039;SDS011;64736;50.462;4.850;2023-03-01T00:20:33;13.07;;;8.80;;
76039;SDS011;64736;50.462;4.850;2023-03-01T00:22:59;14.75;;;9.30;;
76039;SDS011;64736;50.462;4.850;2023-03-01T00:25:25;12.82;;;8.57;;
76039;SDS011;64736;50.462;4.850;2023-03-01T00:27:51;15.35;;;9.65;;
76039;SDS011;64736;50.462;4.850;2023-03-01T00:30:16;14.65;;;10.00;;
76039;SDS011;64736;50.462;4.850;2023-03-01T00:32:42;15.98;;;9.07;;
76039;SDS011;64736;50.462;4.850;2023-03-01T00:35:08;15.55;;;9.63;;
76039;SDS011;64736;50.462;4.850;2023-03-01T00:37:34;15.82;;;10.20;;
76039;SDS011;64736;50.462;4.850;2023-03-01T00:39:59;13.50;;;9.52;;
76039;SDS011;64736;50.462;4.850;2023-03-01T00:42:25;14.15;;;9.50;;
76039;SDS011;64736;50.462;4.850;2023-03-01T00:44:51;13.05;;;8.77;;
76039;SDS011;64736;50.462;4.850;2023-03-01T00:47:16;16.08;;;9.73;;
76039;SDS011;64736;50.462;4.850;2023-03-01T00:49:42;14.13;;;10.02;;
76039;SDS011;64736;50.462;4.850;2023-03-01T00:52:08;14.60;;;10.05;;
76039;SDS011;64736;50.462;4.850;2023-03-01T00:54:34;14.10;;;8.75;;
76039;SDS011;64736;50.462;4.850;2023-03-01T00:56:59;13.30;;;8.63;;
76039;SDS011;64736;50.462;4.850;2023-03-01T00:59:25;15.70;;;9.20;;
76039;SDS011;64736;50.462;4.850;2023-03-01T01:01:50;15.57;;;8.48;;
76039;SDS011;64736;50.462;4.850;2023-03-01T01:04:16;13.60;;;8.60;;
76039;SDS011;64736;50.462;4.850;2023-03-01T01:06:43;12.07;;;8.55;;
76039;SDS011;64736;50.462;4.850;2023-03-01T01:09:12;16.20;;;9.25;;
76039;SDS011;64736;50.462;4.850;2023-03-01T01:11:43;12.70;;;8.85;;
76039;SDS011;64736;50.462;4.850;2023-03-01T01:14:10;12.18;;;8.48;;
76039;SDS011;64736;50.462;4.850;2023-03-01T01:16:36;15.52;;;8.68;;
76039;SDS011;64736;50.462;4.850;2023-03-01T01:19:02;11.63;;;8.48;;
76039;SDS011;64736;50.462;4.850;2023-03-01T01:21:28;15.77;;;9.05;;
76039;SDS011;64736;50.462;4.850;2023-03-01T01:23:54;12.73;;;9.45;;
76039;SDS011;64736;50.462;4.850;2023-03-01T01:26:22;14.80;;;9.18;;
76039;SDS011;64736;50.462;4.850;2023-03-01T01:28:50;14.27;;;8.80;;
76039;SDS011;64736;50.462;4.850;2023-03-01T01:31:16;13.13;;;8.65;;
76039;SDS011;64736;50.462;4.850;2023-03-01T01:33:42;13.80;;;9.55;;
76039;SDS011;64736;50.462;4.850;2023-03-01T01:36:09;12.50;;;8.88;;
76039;SDS011;64736;50.462;4.850;2023-03-01T01:38:35;14.70;;;9.70;;
76039;SDS011;64736;50.462;4.850;2023-03-01T01:41:03;12.60;;;8.25;;
76039;SDS011;64736;50.462;4.850;2023-03-01T01:43:30;12.63;;;9.77;;
76039;SDS011;64736;50.462;4.850;2023-03-01T01:46:04;12.88;;;8.65;;
76039;SDS011;64736;50.462;4.850;2023-03-01T01:48:41;14.30;;;9.57;;
76039;SDS011;64736;50.462;4.850;2023-03-01T01:51:15;13.52;;;9.48;;
76039;SDS011;64736;50.462;4.850;2023-03-01T01:53:50;13.38;;;9.43;;
76039;SDS011;64736;50.462;4.850;2023-03-01T01:56:20;14.70;;;8.25;;
76039;SDS011;64736;50.462;4.850;2023-03-01T01:58:49;16.47;;;9.37;;
76039;SDS011;64736;50.462;4.850;2023-03-01T02:01:15;13.73;;;9.73;;
76039;SDS011;64736;50.462;4.850;2023-03-01T02:03:43;15.00;;;9.52;;
76039;SDS011;64736;50.462;4.850;2023-03-01T02:08:39;10.27;;;8.35;;
76039;SDS011;64736;50.462;4.850;2023-03-01T02:11:06;16.67;;;10.55;;
76039;SDS011;64736;50.462;4.850;2023-03-01T02:13:34;14.32;;;9.77;;
76039;SDS011;64736;50.462;4.850;2023-03-01T02:16:18;12.93;;;8.85;;
76039;SDS011;64736;50.462;4.850;2023-03-01T02:18:45;14.93;;;9.13;;
76039;SDS011;64736;50.462;4.850;2023-03-01T02:21:30;15.00;;;9.88;;
76039;SDS011;64736;50.462;4.850;2023-03-01T02:24:28;15.95;;;9.48;;
76039;SDS011;64736;50.462;4.850;2023-03-01T02:26:57;15.27;;;10.13;;
76039;SDS011;64736;50.462;4.850;2023-03-01T02:29:24;16.10;;;9.55;;
76039;SDS011;64736;50.462;4.850;2023-03-01T02:31:52;15.25;;;9.82;;
76039;SDS011;64736;50.462;4.850;2023-03-01T02:34:22;15.52;;;10.02;;
76039;SDS011;64736;50.462;4.850;2023-03-01T02:36:59;13.30;;;9.35;;
76039;SDS011;64736;50.462;4.850;2023-03-01T02:39:34;14.50;;;10.55;;
76039;SDS011;64736;50.462;4.850;2023-03-01T02:42:07;13.52;;;9.40;;
76039;SDS011;64736;50.462;4.850;2023-03-01T02:44:38;13.80;;;9.32;;
76039;SDS011;64736;50.462;4.850;2023-03-01T02:47:04;14.30;;;9.55;;
76039;SDS011;64736;50.462;4.850;2023-03-01T02:49:32;15.30;;;9.40;;
76039;SDS011;64736;50.462;4.850;2023-03-01T02:57:22;13.23;;;9.00;;
76039;SDS011;64736;50.462;4.850;2023-03-01T02:59:50;15.40;;;9.32;;
76039;SDS011;64736;50.462;4.850;2023-03-01T03:02:21;16.13;;;10.85;;
76039;SDS011;64736;50.462;4.850;2023-03-01T03:05:02;15.52;;;9.77;;
76039;SDS011;64736;50.462;4.850;2023-03-01T03:07:28;14.43;;;10.30;;
76039;SDS011;64736;50.462;4.850;2023-03-01T03:09:54;14.65;;;10.43;;
76039;SDS011;64736;50.462;4.850;2023-03-01T03:12:20;17.90;;;10.27;;
76039;SDS011;64736;50.462;4.850;2023-03-01T03:14:45;17.33;;;10.95;;
76039;SDS011;64736;50.462;4.850;2023-03-01T03:17:11;14.90;;;10.00;;
76039;SDS011;64736;50.462;4.850;2023-03-01T03:19:37;16.85;;;10.13;;
76039;SDS011;64736;50.462;4.850;2023-03-01T03:22:02;14.10;;;9.95;;
76039;SDS011;64736;50.462;4.850;2023-03-01T03:24:28;17.20;;;10.38;;
76039;SDS011;64736;50.462;4.850;2023-03-01T03:27:06;16.58;;;10.85;;
76039;SDS011;64736;50.462;4.850;2023-03-01T03:29:32;16.23;;;10.27;;
76039;SDS011;64736;50.462;4.850;2023-03-01T03:31:58;13.60;;;9.13;;
76039;SDS011;64736;50.462;4.850;2023-03-01T03:34:25;15.82;;;10.90;;
76039;SDS011;64736;50.462;4.850;2023-03-01T03:36:54;15.18;;;10.38;;
76039;SDS011;64736;50.462;4.850;2023-03-01T03:39:25;13.55;;;9.70;;
76039;SDS011;64736;50.462;4.850;2023-03-01T03:42:00;14.30;;;9.15;;
76039;SDS011;64736;50.462;4.850;2023-03-01T03:44:26;17.17;;;11.32;;
76039;SDS011;64736;50.462;4.850;2023-03-01T03:46:52;14.48;;;9.18;;
76039;SDS011;64736;50.462;4.850;2023-03-01T03:49:18;15.57;;;10.65;;
76039;SDS011;64736;50.462;4.850;2023-03-01T03:51:45;13.13;;;9.60;;
76039;SDS011;64736;50.462;4.850;2023-03-01T03:54:11;14.65;;;10.02;;
76039;SDS011;64736;50.462;4.850;2023-03-01T03:56:37;13.23;;;10.43;;
76039;SDS011;64736;50.462;4.850;2023-03-01T03:59:03;17.30;;;10.50;;
76039;SDS011;64736;50.462;4.850;2023-03-01T04:01:28;16.48;;;11.02;;
76039;SDS011;64736;50.462;4.850;2023-03-01T04:03:54;18.48;;;11.18;;
76039;SDS011;64736;50.462;4.850;2023-03-01T04:06:19;17.88;;;10.55;;
76039;SDS011;64736;50.462;4.850;2023-03-01T04:08:45;15.30;;;10.43;;
76039;SDS011;64736;50.462;4.850;2023-03-01T04:11:11;15.50;;;11.15;;
76039;SDS011;64736;50.462;4.850;2023-03-01T04:13:54;16.05;;;10.23;;
76039;SDS011;64736;50.462;4.850;2023-03-01T04:16:22;14.77;;;9.87;;
76039;SDS011;64736;50.462;4.850;2023-03-01T04:18:48;16.23;;;11.52;;
76039;SDS011;64736;50.462;4.850;2023-03-01T04:21:15;17.45;;;11.52;;
76039;SDS011;64736;50.462;4.850;2023-03-01T04:23:40;17.27;;;11.00;;
76039;SDS011;64736;50.462;4.850;2023-03-01T04:26:06;18.00;;;11.80;;
76039;SDS011;64736;50.462;4.850;2023-03-01T04:28:34;16.70;;;11.00;;
76039;SDS011;64736;50.462;4.850;2023-03-01T04:31:06;18.08;;;11.13;;
76039;SDS011;64736;50.462;4.850;2023-03-01T04:33:47;17.55;;;11.70;;
76039;SDS011;64736;50.462;4.850;2023-03-01T04:36:19;16.35;;;11.25;;
76039;SDS011;64736;50.462;4.850;2023-03-01T04:38:48;17.80;;;11.90;;
76039;SDS011;64736;50.462;4.850;2023-03-01T04:41:14;14.43;;;11.07;;
76039;SDS011;64736;50.462;4.850;2023-03-01T04:43:42;17.40;;;11.57;;
76039;SDS011;64736;50.462;4.850;2023-03-01T04:46:11;18.90;;;11.55;;
76039;SDS011;64736;50.462;4.850;2023-03-01T04:48:39;17.17;;;11.13;;
76039;SDS011;64736;50.462;4.850;2023-03-01T04:51:07;17.35;;;11.55;;
76039;SDS011;64736;50.462;4.850;2023-03-01T04:53:33;18.10;;;11.77;;
76039;SDS011;64736;50.462;4.850;2023-03-01T04:56:01;19.75;;;12.50;;
76039;SDS011;64736;50.462;4.850;2023-03-01T04:58:27;17.58;;;11.70;;
76039;SDS011;64736;50.462;4.850;2023-03-01T05:00:53;17.20;;;12.02;;
76039;SDS011;64736;50.462;4.850;2023-03-01T05:03:20;16.98;;;10.38;;
76039;SDS011;64736;50.462;4.850;2023-03-01T05:05:47;18.70;;;11.77;;
76039;SDS011;64736;50.462;4.850;2023-03-01T05:08:15;17.58;;;11.82;;
76039;SDS011;64736;50.462;4.850;2023-03-01T05:10:51;15.43;;;10.00;;
76039;SDS011;64736;50.462;4.850;2023-03-01T05:13:18;17.70;;;10.80;;
76039;SDS011;64736;50.462;4.850;2023-03-01T05:15:53;15.65;;;10.60;;
76039;SDS011;64736;50.462;4.850;2023-03-01T05:18:20;16.88;;;11.40;;
76039;SDS011;64736;50.462;4.850;2023-03-01T05:20:46;17.13;;;11.52;;
76039;SDS011;64736;50.462;4.850;2023-03-01T05:23:12;15.93;;;10.23;;
76039;SDS011;64736;50.462;4.850;2023-03-01T05:25:38;17.83;;;10.55;;
76039;SDS011;64736;50.462;4.850;2023-03-01T05:28:06;19.30;;;13.00;;
76039;SDS011;64736;50.462;4.850;2023-03-01T05:30:38;16.92;;;11.30;;
76039;SDS011;64736;50.462;4.850;2023-03-01T05:33:07;16.00;;;11.45;;
76039;SDS011;64736;50.462;4.850;2023-03-01T05:35:40;18.38;;;11.07;;
76039;SDS011;64736;50.462;4.850;2023-03-01T05:38:08;16.55;;;11.48;;
76039;SDS011;64736;50.462;4.850;2023-03-01T05:40:44;15.07;;;10.98;;
76039;SDS011;64736;50.462;4.850;2023-03-01T05:43:12;18.25;;;11.35;;
76039;SDS011;64736;50.462;4.850;2023-03-01T05:45:42;20.20;;;12.13;;
76039;SDS011;64736;50.462;4.850;2023-03-01T05:48:08;16.38;;;11.90;;
76039;SDS011;64736;50.462;4.850;2023-03-01T05:50:37;17.25;;;10.57;;
76039;SDS011;64736;50.462;4.850;2023-03-01T05:53:05;16.98;;;12.02;;
76039;SDS011;64736;50.462;4.850;2023-03-01T05:55:37;16.58;;;11.73;;
76039;SDS011;64736;50.462;4.850;2023-03-01T05:58:07;16.02;;;11.27;;
76039;SDS011;64736;50.462;4.850;2023-03-01T06:00:35;18.08;;;11.85;;
76039;SDS011;64736;50.462;4.850;2023-03-01T06:03:01;16.52;;;12.10;;
76039;SDS011;64736;50.462;4.850;2023-03-01T06:05:28;17.08;;;12.45;;
76039;SDS011;64736;50.462;4.850;2023-03-01T06:07:54;19.52;;;11.38;;
76039;SDS011;64736;50.462;4.850;2023-03-01T06:10:21;15.90;;;11.25;;
76039;SDS011;64736;50.462;4.850;2023-03-01T06:12:47;16.70;;;12.25;;
76039;SDS011;64736;50.462;4.850;2023-03-01T06:15:14;19.15;;;12.07;;
76039;SDS011;64736;50.462;4.850;2023-03-01T06:17:42;20.83;;;12.63;;
76039;SDS011;64736;50.462;4.850;2023-03-01T06:20:16;16.63;;;11.90;;
76039;SDS011;64736;50.462;4.850;2023-03-01T06:22:53;17.40;;;11.07;;
76039;SDS011;64736;50.462;4.850;2023-03-01T06:25:20;16.90;;;12.10;;
76039;SDS011;64736;50.462;4.850;2023-03-01T06:27:47;17.50;;;12.35;;
76039;SDS011;64736;50.462;4.850;2023-03-01T06:30:17;15.63;;;12.02;;
76039;SDS011;64736;50.462;4.850;2023-03-01T06:32:44;16.65;;;11.63;;
76039;SDS011;64736;50.462;4.850;2023-03-01T06:35:11;17.90;;;14.20;;
76039;SDS011;64736;50.462;4.850;2023-03-01T06:37:39;19.17;;;12.40;;
76039;SDS011;64736;50.462;4.850;2023-03-01T06:40:06;18.88;;;12.75;;
76039;SDS011;64736;50.462;4.850;2023-03-01T06:42:36;17.80;;;11.40;;
76039;SDS011;64736;50.462;4.850;2023-03-01T06:45:07;19.13;;;11.98;;
76039;SDS011;64736;50.462;4.850;2023-03-01T06:47:34;20.80;;;12.88;;
76039;SDS011;64736;50.462;4.850;2023-03-01T06:50:00;16.85;;;12.63;;
76039;SDS011;64736;50.462;4.850;2023-03-01T06:52:26;18.83;;;12.73;;
76039;SDS011;64736;50.462;4.850;2023-03-01T06:54:52;19.73;;;13.27;;
76039;SDS011;64736;50.462;4.850;2023-03-01T06:57:18;17.98;;;12.75;;
76039;SDS011;64736;50.462;4.850;2023-03-01T06:59:43;23.17;;;13.30;;
76039;SDS011;64736;50.462;4.850;2023-03-01T07:02:10;18.27;;;12.98;;
76039;SDS011;64736;50.462;4.850;2023-03-01T07:04:37;20.08;;;13.65;;
76039;SDS011;64736;50.462;4.850;2023-03-01T07:07:03;20.02;;;13.43;;
76039;SDS011;64736;50.462;4.850;2023-03-01T07:09:28;19.92;;;13.85;;
76039;SDS011;64736;50.462;4.850;2023-03-01T07:11:54;20.58;;;14.38;;
76039;SDS011;64736;50.462;4.850;2023-03-01T07:14:21;20.17;;;12.95;;
76039;SDS011;64736;50.462;4.850;2023-03-01T07:16:50;18.17;;;13.20;;
76039;SDS011;64736;50.462;4.850;2023-03-01T07:19:16;20.08;;;13.27;;
76039;SDS011;64736;50.462;4.850;2023-03-01T07:21:41;19.42;;;14.13;;
76039;SDS011;64736;50.462;4.850;2023-03-01T07:24:08;19.50;;;15.10;;
76039;SDS011;64736;50.462;4.850;2023-03-01T07:26:35;19.35;;;13.75;;
76039;SDS011;64736;50.462;4.850;2023-03-01T07:29:02;25.02;;;14.35;;
76039;SDS011;64736;50.462;4.850;2023-03-01T07:31:30;18.30;;;12.98;;
76039;SDS011;64736;50.462;4.850;2023-03-01T07:33:56;20.02;;;14.27;;
76039;SDS011;64736;50.462;4.850;2023-03-01T07:36:22;24.70;;;15.82;;
76039;SDS011;64736;50.462;4.850;2023-03-01T07:38:48;25.23;;;16.67;;
76039;SDS011;64736;50.462;4.850;2023-03-01T07:41:13;20.15;;;13.65;;
76039;SDS011;64736;50.462;4.850;2023-03-01T07:43:39;21.90;;;15.07;;
76039;SDS011;64736;50.462;4.850;2023-03-01T07:46:05;19.60;;;14.07;;
76039;SDS011;64736;50.462;4.850;2023-03-01T07:48:32;22.02;;;14.50;;
76039;SDS011;64736;50.462;4.850;2023-03-01T07:50:59;21.40;;;14.60;;
76039;SDS011;64736;50.462;4.850;2023-03-01T07:53:25;20.05;;;14.63;;
76039;SDS011;64736;50.462;4.850;2023-03-01T07:56:02;24.02;;;16.70;;
76039;SDS011;64736;50.462;4.850;2023-03-01T07:58:29;20.42;;;14.98;;
76039;SDS011;64736;50.462;4.850;2023-03-01T08:00:55;21.17;;;15.05;;
76039;SDS011;64736;50.462;4.850;2023-03-01T08:03:20;21.95;;;15.88;;
76039;SDS011;64736;50.462;4.850;2023-03-01T08:05:46;24.20;;;14.95;;
76039;SDS011;64736;50.462;4.850;2023-03-01T08:08:12;21.02;;;14.70;;
76039;SDS011;64736;50.462;4.850;2023-03-01T08:10:38;21.15;;;15.10;;
76039;SDS011;64736;50.462;4.850;2023-03-01T08:13:03;23.92;;;15.45;;
76039;SDS011;64736;50.462;4.850;2023-03-01T08:15:29;22.95;;;17.08;;
76039;SDS011;64736;50.462;4.850;2023-03-01T08:17:55;17.98;;;13.90;;
76039;SDS011;64736;50.462;4.850;2023-03-01T08:20:20;21.35;;;16.15;;
76039;SDS011;64736;50.462;4.850;2023-03-01T08:22:46;24.38;;;16.13;;
76039;SDS011;64736;50.462;4.850;2023-03-01T08:25:12;25.40;;;15.93;;
76039;SDS011;64736;50.462;4.850;2023-03-01T08:27:38;23.17;;;15.68;;
76039;SDS011;64736;50.462;4.850;2023-03-01T08:30:03;25.50;;;15.95;;
76039;SDS011;64736;50.462;4.850;2023-03-01T08:32:32;16.38;;;12.20;;
76039;SDS011;64736;50.462;4.850;2023-03-01T08:35:02;26.98;;;16.25;;
76039;SDS011;64736;50.462;4.850;2023-03-01T08:37:27;24.20;;;17.42;;
76039;SDS011;64736;50.462;4.850;2023-03-01T08:39:56;22.50;;;14.95;;
76039;SDS011;64736;50.462;4.850;2023-03-01T08:42:22;15.68;;;12.00;;
76039;SDS011;64736;50.462;4.850;2023-03-01T08:44:47;20.88;;;12.68;;
76039;SDS011;64736;50.462;4.850;2023-03-01T08:47:13;21.48;;;15.35;;
76039;SDS011;64736;50.462;4.850;2023-03-01T08:49:39;18.83;;;13.93;;
76039;SDS011;64736;50.462;4.850;2023-03-01T08:52:05;18.95;;;14.00;;
76039;SDS011;64736;50.462;4.850;2023-03-01T08:54:30;20.48;;;14.45;;
76039;SDS011;64736;50.462;4.850;2023-03-01T08:56:56;18.02;;;13.07;;
76039;SDS011;64736;50.462;4.850;2023-03-01T08:59:24;15.90;;;10.70;;
76039;SDS011;64736;50.462;4.850;2023-03-01T09:01:50;21.35;;;13.82;;
76039;SDS011;64736;50.462;4.850;2023-03-01T09:04:16;17.13;;;13.55;;
76039;SDS011;64736;50.462;4.850;2023-03-01T09:06:42;20.58;;;13.50;;
76039;SDS011;64736;50.462;4.850;2023-03-01T09:09:12;19.08;;;13.50;;
76039;SDS011;64736;50.462;4.850;2023-03-01T09:11:42;16.27;;;10.75;;
76039;SDS011;64736;50.462;4.850;2023-03-01T09:14:11;19.47;;;12.73;;
76039;SDS011;64736;50.462;4.850;2023-03-01T09:16:38;15.18;;;9.35;;
76039;SDS011;64736;50.462;4.850;2023-03-01T09:19:05;24.95;;;14.75;;
76039;SDS011;64736;50.462;4.850;2023-03-01T09:21:31;18.77;;;11.82;;
76039;SDS011;64736;50.462;4.850;2023-03-01T09:23:57;17.83;;;13.48;;
76039;SDS011;64736;50.462;4.850;2023-03-01T09:26:23;16.23;;;10.27;;
76039;SDS011;64736;50.462;4.850;2023-03-01T09:28:50;18.40;;;11.52;;
76039;SDS011;64736;50.462;4.850;2023-03-01T09:31:21;20.35;;;14.45;;
76039;SDS011;64736;50.462;4.850;2023-03-01T09:33:49;19.27;;;10.95;;
76039;SDS011;64736;50.462;4.850;2023-03-01T09:36:17;19.55;;;13.23;;
76039;SDS011;64736;50.462;4.850;2023-03-01T09:38:46;22.67;;;15.48;;
76039;SDS011;64736;50.462;4.850;2023-03-01T09:41:22;21.80;;;14.57;;
76039;SDS011;64736;50.462;4.850;2023-03-01T09:44:18;18.08;;;12.35;;
76039;SDS011;64736;50.462;4.850;2023-03-01T09:46:49;21.77;;;13.95;;
76039;SDS011;64736;50.462;4.850;2023-03-01T09:49:39;20.05;;;12.98;;
76039;SDS011;64736;50.462;4.850;2023-03-01T09:54:49;15.27;;;11.15;;
76039;SDS011;64736;50.462;4.850;2023-03-01T10:00:05;16.02;;;11.82;;
76039;SDS011;64736;50.462;4.850;2023-03-01T10:10:48;16.30;;;10.27;;
76039;SDS011;64736;50.462;4.850;2023-03-01T10:15:53;26.98;;;15.95;;
76039;SDS011;64736;50.462;4.850;2023-03-01T10:18:30;23.42;;;18.23;;
76039;SDS011;64736;50.462;4.850;2023-03-01T10:20:58;25.40;;;17.77;;
76039;SDS011;64736;50.462;4.850;2023-03-01T10:23:26;20.17;;;13.82;;
76039;SDS011;64736;50.462;4.850;2023-03-01T10:30:54;19.50;;;13.80;;
76039;SDS011;64736;50.462;4.850;2023-03-01T10:33:23;16.60;;;11.43;;
76039;SDS011;64736;50.462;4.850;2023-03-01T10:35:52;21.15;;;15.02;;
76039;SDS011;64736;50.462;4.850;2023-03-01T10:38:18;22.30;;;15.35;;
76039;SDS011;64736;50.462;4.850;2023-03-01T10:41:04;19.33;;;13.80;;
76039;SDS011;64736;50.462;4.850;2023-03-01T10:43:43;21.05;;;14.35;;
76039;SDS011;64736;50.462;4.850;2023-03-01T10:51:49;19.77;;;13.43;;
76039;SDS011;64736;50.462;4.850;2023-03-01T10:54:25;14.65;;;10.15;;
76039;SDS011;64736;50.462;4.850;2023-03-01T10:56:59;16.05;;;11.13;;
76039;SDS011;64736;50.462;4.850;2023-03-01T10:59:30;20.08;;;14.57;;
76039;SDS011;64736;50.462;4.850;2023-03-01T11:02:18;18.15;;;10.82;;
76039;SDS011;64736;50.462;4.850;2023-03-01T11:05:01;15.48;;;10.05;;
76039;SDS011;64736;50.462;4.850;2023-03-01T11:07:27;13.70;;;9.13;;
76039;SDS011;64736;50.462;4.850;2023-03-01T11:09:53;13.25;;;8.38;;
76039;SDS011;64736;50.462;4.850;2023-03-01T11:12:19;18.17;;;12.38;;
76039;SDS011;64736;50.462;4.850;2023-03-01T11:14:55;21.25;;;13.25;;
76039;SDS011;64736;50.462;4.850;2023-03-01T11:17:31;14.05;;;9.93;;
76039;SDS011;64736;50.462;4.850;2023-03-01T11:23:01;15.35;;;9.18;;
76039;SDS011;64736;50.462;4.850;2023-03-01T11:25:39;20.77;;;13.68;;
76039;SDS011;64736;50.462;4.850;2023-03-01T11:28:12;18.20;;;12.90;;
76039;SDS011;64736;50.462;4.850;2023-03-01T11:38:34;16.05;;;12.02;;
76039;SDS011;64736;50.462;4.850;2023-03-01T11:41:05;19.70;;;12.40;;
76039;SDS011;64736;50.462;4.850;2023-03-01T11:43:51;18.23;;;11.50;;
76039;SDS011;64736;50.462;4.850;2023-03-01T11:52:19;14.15;;;8.52;;
76039;SDS011;64736;50.462;4.850;2023-03-01T12:08:30;17.30;;;10.45;;
76039;SDS011;64736;50.462;4.850;2023-03-01T12:16:54;16.17;;;11.07;;
76039;SDS011;64736;50.462;4.850;2023-03-01T12:25:08;14.98;;;11.15;;
76039;SDS011;64736;50.462;4.850;2023-03-01T12:33:14;18.95;;;14.10;;
76039;SDS011;64736;50.462;4.850;2023-03-01T12:38:46;15.50;;;10.93;;
76039;SDS011;64736;50.462;4.850;2023-03-01T12:44:22;18.85;;;12.35;;
76039;SDS011;64736;50.462;4.850;2023-03-01T12:50:17;17.58;;;11.38;;
76039;SDS011;64736;50.462;4.850;2023-03-01T12:52:55;14.65;;;9.75;;
76039;SDS011;64736;50.462;4.850;2023-03-01T12:55:33;15.25;;;10.93;;
76039;SDS011;64736;50.462;4.850;2023-03-01T12:58:15;18.77;;;12.50;;
76039;SDS011;64736;50.462;4.850;2023-03-01T13:01:14;17.20;;;11.70;;
76039;SDS011;64736;50.462;4.850;2023-03-01T13:04:06;19.08;;;12.98;;
76039;SDS011;64736;50.462;4.850;2023-03-01T13:17:48;14.05;;;10.27;;
76039;SDS011;64736;50.462;4.850;2023-03-01T13:20:31;17.75;;;13.55;;
76039;SDS011;64736;50.462;4.850;2023-03-01T13:23:23;15.93;;;10.13;;
76039;SDS011;64736;50.462;4.850;2023-03-01T13:26:05;14.35;;;11.07;;
76039;SDS011;64736;50.462;4.850;2023-03-01T13:28:58;12.23;;;8.32;;
76039;SDS011;64736;50.462;4.850;2023-03-01T13:33:55;13.80;;;9.52;;
76039;SDS011;64736;50.462;4.850;2023-03-01T13:44:57;11.30;;;9.20;;
76039;SDS011;64736;50.462;4.850;2023-03-01T13:47:23;15.35;;;9.88;;
76039;SDS011;64736;50.462;4.850;2023-03-01T13:49:52;16.30;;;10.57;;
76039;SDS011;64736;50.462;4.850;2023-03-01T13:55:03;17.80;;;10.32;;
76039;SDS011;64736;50.462;4.850;2023-03-01T13:57:35;15.68;;;10.48;;
76039;SDS011;64736;50.462;4.850;2023-03-01T14:00:04;16.15;;;11.30;;
76039;SDS011;64736;50.462;4.850;2023-03-01T14:02:32;12.57;;;8.15;;
76039;SDS011;64736;50.462;4.850;2023-03-01T14:05:00;16.05;;;10.85;;
76039;SDS011;64736;50.462;4.850;2023-03-01T14:07:26;17.02;;;11.73;;
76039;SDS011;64736;50.462;4.850;2023-03-01T14:09:56;18.30;;;10.52;;
76039;SDS011;64736;50.462;4.850;2023-03-01T14:22:42;16.17;;;11.02;;
76039;SDS011;64736;50.462;4.850;2023-03-01T14:28:36;13.15;;;9.32;;
76039;SDS011;64736;50.462;4.850;2023-03-01T14:30:45;15.00;;;11.25;;
76039;SDS011;64736;50.462;4.850;2023-03-01T14:33:21;19.20;;;11.25;;
76039;SDS011;64736;50.462;4.850;2023-03-01T14:38:49;15.38;;;10.98;;
76039;SDS011;64736;50.462;4.850;2023-03-01T14:41:16;14.13;;;9.07;;
76039;SDS011;64736;50.462;4.850;2023-03-01T14:43:52;16.17;;;9.25;;
76039;SDS011;64736;50.462;4.850;2023-03-01T14:46:29;18.38;;;11.77;;
76039;SDS011;64736;50.462;4.850;2023-03-01T14:49:01;13.70;;;8.75;;
76039;SDS011;64736;50.462;4.850;2023-03-01T14:51:32;14.77;;;9.82;;
76039;SDS011;64736;50.462;4.850;2023-03-01T14:54:10;17.52;;;11.27;;
76039;SDS011;64736;50.462;4.850;2023-03-01T14:56:58;17.77;;;11.35;;
76039;SDS011;64736;50.462;4.850;2023-03-01T14:59:26;14.23;;;9.52;;
76039;SDS011;64736;50.462;4.850;2023-03-01T15:01:55;17.38;;;11.70;;
76039;SDS011;64736;50.462;4.850;2023-03-01T15:04:22;14.80;;;10.68;;
76039;SDS011;64736;50.462;4.850;2023-03-01T15:06:53;16.42;;;11.15;;
76039;SDS011;64736;50.462;4.850;2023-03-01T15:09:21;15.48;;;8.43;;
76039;SDS011;64736;50.462;4.850;2023-03-01T15:11:48;17.25;;;12.35;;
76039;SDS011;64736;50.462;4.850;2023-03-01T15:16:53;16.00;;;9.73;;
76039;SDS011;64736;50.462;4.850;2023-03-01T15:19:19;18.27;;;11.80;;
76039;SDS011;64736;50.462;4.850;2023-03-01T15:21:46;14.57;;;8.27;;
76039;SDS011;64736;50.462;4.850;2023-03-01T15:24:20;13.80;;;9.05;;
76039;SDS011;64736;50.462;4.850;2023-03-01T15:26:51;13.75;;;9.82;;
76039;SDS011;64736;50.462;4.850;2023-03-01T15:29:24;16.90;;;11.43;;
76039;SDS011;64736;50.462;4.850;2023-03-01T15:31:59;13.65;;;8.73;;
76039;SDS011;64736;50.462;4.850;2023-03-01T15:34:32;13.75;;;8.70;;
76039;SDS011;64736;50.462;4.850;2023-03-01T15:37:02;18.63;;;11.77;;
76039;SDS011;64736;50.462;4.850;2023-03-01T15:42:07;16.15;;;10.15;;
76039;SDS011;64736;50.462;4.850;2023-03-01T15:44:35;16.58;;;10.82;;
76039;SDS011;64736;50.462;4.850;2023-03-01T15:47:04;17.40;;;11.18;;
76039;SDS011;64736;50.462;4.850;2023-03-01T15:49:47;13.82;;;9.10;;
76039;SDS011;64736;50.462;4.850;2023-03-01T15:52:22;18.45;;;12.13;;
76039;SDS011;64736;50.462;4.850;2023-03-01T15:55:04;18.63;;;11.23;;
76039;SDS011;64736;50.462;4.850;2023-03-01T15:57:31;14.25;;;9.40;;
76039;SDS011;64736;50.462;4.850;2023-03-01T15:59:57;16.83;;;9.60;;
76039;SDS011;64736;50.462;4.850;2023-03-01T16:02:23;17.52;;;12.65;;
76039;SDS011;64736;50.462;4.850;2023-03-01T16:04:49;20.00;;;12.13;;
76039;SDS011;64736;50.462;4.850;2023-03-01T16:07:16;14.65;;;10.93;;
76039;SDS011;64736;50.462;4.850;2023-03-01T16:09:42;17.02;;;11.32;;
76039;SDS011;64736;50.462;4.850;2023-03-01T16:12:15;18.75;;;10.90;;
76039;SDS011;64736;50.462;4.850;2023-03-01T16:14:42;18.73;;;11.90;;
76039;SDS011;64736;50.462;4.850;2023-03-01T16:17:08;15.60;;;8.75;;
76039;SDS011;64736;50.462;4.850;2023-03-01T16:19:35;11.73;;;8.02;;
76039;SDS011;64736;50.462;4.850;2023-03-01T16:22:03;16.17;;;9.90;;
76039;SDS011;64736;50.462;4.850;2023-03-01T16:24:29;15.55;;;9.45;;
76039;SDS011;64736;50.462;4.850;2023-03-01T16:26:55;17.88;;;10.68;;
76039;SDS011;64736;50.462;4.850;2023-03-01T16:29:21;20.42;;;12.60;;
76039;SDS011;64736;50.462;4.850;2023-03-01T16:31:47;17.60;;;11.68;;
76039;SDS011;64736;50.462;4.850;2023-03-01T16:34:13;16.90;;;9.57;;
76039;SDS011;64736;50.462;4.850;2023-03-01T16:36:39;15.57;;;9.32;;
76039;SDS011;64736;50.462;4.850;2023-03-01T16:39:04;15.07;;;10.20;;
76039;SDS011;64736;50.462;4.850;2023-03-01T16:41:31;15.35;;;9.63;;
76039;SDS011;64736;50.462;4.850;2023-03-01T16:43:57;17.15;;;11.25;;
76039;SDS011;64736;50.462;4.850;2023-03-01T16:46:24;23.58;;;13.70;;
76039;SDS011;64736;50.462;4.850;2023-03-01T16:48:51;16.58;;;10.60;;
76039;SDS011;64736;50.462;4.850;2023-03-01T16:51:17;16.30;;;9.60;;
76039;SDS011;64736;50.462;4.850;2023-03-01T16:53:43;18.08;;;10.02;;
76039;SDS011;64736;50.462;4.850;2023-03-01T16:56:10;13.45;;;7.32;;